Eyr Myken — LCQU — position and weather

sailwx.info

Track history (hours):
 
Tides and Currents Weather Stations Pressure Air Temp Water Temp Dewpoint Dewpoint Depression Visibility Wind Speed Wind Dir Waves Ship Positions

Eyr Myken

Last reported at 2016-May-30 14:32 UTC. Time now 2016-May-30 22:15 UTC.
Position N 66°32' E 012°58'.

Length 18 m; draft 1.5 m.

Type: Medical transport. MMSI: 257054000.

Date/timePositionNaut miles runAvg speedWind from/ knotsBaromVisibWave heightAir tempDewpointWater temp
2016-May-30 14:32N 66°32' E 012°58'2523.3
2016-May-30 13:28N 66°07' E 012°45'10 3.4
2016-May-30 10:34N 66°15' E 012°32'2410.8
2016-May-30 08:17N 66°34' E 013°11'6 0.2
2016-May-29 04:25N 66°32' E 012°58'2225.9
2016-May-29 03:33N 66°11' E 012°40'5 4.9
2016-May-29 02:32N 66°15' E 012°42'21 0.7
2016-May-27 21:09N 66°33' E 013°11'6 0.2
2016-May-26 07:08N 66°35' E 012°58'3 0.2
2016-May-25 18:25N 66°33' E 013°01'1112.0
2016-May-25 17:30N 66°23' E 012°48'16 4.1
2016-May-25 13:30N 66°39' E 012°60'11 0.7
2016-May-24 20:31N 66°27' E 012°55'3 3.0
2016-May-24 19:34N 66°25' E 012°50'12 2.3
2016-May-24 14:29N 66°37' E 012°48'17 0.3
2016-May-22 14:18N 66°20' E 013°00'6 7.6
2016-May-22 13:33N 66°21' E 012°46'4 3.8
2016-May-22 12:33N 66°22' E 012°37'7 7.2
2016-May-22 11:34N 66°27' E 012°47'  
Track history (hours):
 
Tides and Currents Weather Stations Pressure Air Temp Water Temp Dewpoint Dewpoint Depression Visibility Wind Speed Wind Dir Waves Ship Positions

Eyr Myken

Last reported at 2016-May-30 14:32 UTC. Time now 2016-May-30 22:15 UTC.
Position N 66°32' E 012°58'.

Length 18 m; draft 1.5 m.

Type: Medical transport. MMSI: 257054000.

Date/timePositionNaut miles runAvg speedWind from/ knotsBaromVisibWave heightAir tempDewpointWater temp
2016-May-30 14:32N 66°32' E 012°58'2523.3
2016-May-30 13:28N 66°07' E 012°45'10 3.4
2016-May-30 10:34N 66°15' E 012°32'2410.8
2016-May-30 08:17N 66°34' E 013°11'6 0.2
2016-May-29 04:25N 66°32' E 012°58'2225.9
2016-May-29 03:33N 66°11' E 012°40'5 4.9
2016-May-29 02:32N 66°15' E 012°42'21 0.7
2016-May-27 21:09N 66°33' E 013°11'6 0.2
2016-May-26 07:08N 66°35' E 012°58'3 0.2
2016-May-25 18:25N 66°33' E 013°01'1112.0
2016-May-25 17:30N 66°23' E 012°48'16 4.1
2016-May-25 13:30N 66°39' E 012°60'11 0.7
2016-May-24 20:31N 66°27' E 012°55'3 3.0
2016-May-24 19:34N 66°25' E 012°50'12 2.3
2016-May-24 14:29N 66°37' E 012°48'17 0.3
2016-May-22 14:18N 66°20' E 013°00'6 7.6
2016-May-22 13:33N 66°21' E 012°46'4 3.8
2016-May-22 12:33N 66°22' E 012°37'7 7.2
2016-May-22 11:34N 66°27' E 012°47'  

Dump ship's entire track history